Time;durP1;ratioP1;P1;durP2;ratioP2;P2;SDS_P1;SDS_P2;PMS_P1;PMS_P2;Temp;Humidity;BMP_temperature;BMP_pressure;BME280_temperature;BME280_humidity;BME280_pressure;Samples;Min_cycle;Max_cycle;Signal;HPM_P1;HPM_P2
2021/12/04 00:05:02;;;;;;;4.30;2.80;;;3.70;99.90;;;;;;10349929;28;20214;-70
2021/12/04 00:10:04;;;;;;;4.97;3.00;;;3.70;99.90;;;;;;10344563;28;20326;-71
2021/12/04 00:15:05;;;;;;;3.93;2.90;;;3.80;99.90;;;;;;10307225;28;20222;-71
2021/12/04 00:20:07;;;;;;;6.70;2.97;;;3.80;99.90;;;;;;10356548;28;20229;-70
2021/12/04 00:25:09;;;;;;;2.67;2.07;;;3.90;99.90;;;;;;10355941;28;20256;-69
2021/12/04 00:30:10;;;;;;;4.57;2.40;;;4.00;99.90;;;;;;10359187;28;20182;-71
2021/12/04 00:35:20;;;;;;;2.93;2.40;;;4.00;99.90;;;;;;10351055;28;20269;-69
2021/12/04 00:51:00;;;;;;;3.43;2.50;;;4.10;99.90;;;;;;10354143;28;20589;-70
2021/12/04 00:56:00;;;;;;;6.00;2.80;;;4.20;99.90;;;;;;10363796;28;20217;-70
2021/12/04 01:01:04;;;;;;;4.43;2.53;;;4.20;99.90;;;;;;10347283;28;20236;-70
2021/12/04 01:06:06;;;;;;;3.77;2.43;;;4.30;99.90;;;;;;10352723;28;20271;-70
2021/12/04 01:11:07;;;;;;;3.40;2.70;;;4.30;99.90;;;;;;10352346;28;20288;-70
2021/12/04 01:16:11;;;;;;;2.83;2.37;;;4.30;99.90;;;;;;10345566;28;20618;-70
2021/12/04 01:21:11;;;;;;;3.97;2.70;;;4.30;99.90;;;;;;10344796;28;20303;-70
2021/12/04 01:26:12;;;;;;;3.83;2.73;;;4.20;99.90;;;;;;10353254;28;20811;-69
2021/12/04 01:31:12;;;;;;;3.80;2.83;;;4.00;99.90;;;;;;10343813;28;20221;-70
2021/12/04 01:36:13;;;;;;;7.40;2.93;;;3.90;99.90;;;;;;10352420;28;20632;-70
2021/12/04 01:41:14;;;;;;;4.23;3.20;;;3.70;99.90;;;;;;10344069;28;20261;-70
2021/12/04 01:46:14;;;;;;;5.03;3.23;;;3.60;99.90;;;;;;10349941;28;20249;-69
2021/12/04 01:51:15;;;;;;;8.70;3.63;;;3.50;99.90;;;;;;10351414;28;20220;-70
2021/12/04 01:56:16;;;;;;;6.17;3.67;;;3.30;99.90;;;;;;10343975;28;20305;-70
2021/12/04 02:01:17;;;;;;;8.70;4.13;;;3.20;99.90;;;;;;10370231;28;20322;-70
2021/12/04 02:06:18;;;;;;;7.03;3.70;;;3.10;99.90;;;;;;10344474;28;20796;-70
2021/12/04 02:11:24;;;;;;;5.73;3.90;;;3.00;99.90;;;;;;10345679;28;20732;-71
2021/12/04 02:16:25;;;;;;;6.77;3.10;;;3.00;99.90;;;;;;10346092;28;20597;-71
2021/12/04 02:21:26;;;;;;;3.90;3.10;;;3.10;99.90;;;;;;10353150;28;20230;-71
2021/12/04 02:26:27;;;;;;;5.43;2.93;;;3.10;99.90;;;;;;10349887;28;20693;-71
2021/12/04 02:31:30;;;;;;;5.77;2.70;;;3.20;99.90;;;;;;10351260;28;20217;-71
2021/12/04 02:36:31;;;;;;;4.40;3.03;;;3.20;99.90;;;;;;10368398;28;20218;-70
2021/12/04 02:41:32;;;;;;;3.77;3.33;;;3.10;99.90;;;;;;10359227;28;20226;-70
2021/12/04 02:46:34;;;;;;;4.93;3.00;;;3.10;99.90;;;;;;10358939;28;20218;-70
2021/12/04 02:51:34;;;;;;;5.70;3.23;;;3.00;99.90;;;;;;10350317;28;20585;-71
2021/12/04 02:56:35;;;;;;;5.00;3.37;;;3.00;99.90;;;;;;10358117;28;20216;-71
2021/12/04 03:01:38;;;;;;;4.90;3.97;;;2.90;99.90;;;;;;10359080;28;20244;-71
2021/12/04 03:06:45;;;;;;;5.80;4.03;;;2.90;99.90;;;;;;10363520;28;20221;-71
2021/12/04 03:11:46;;;;;;;5.07;3.50;;;2.90;99.90;;;;;;10362747;28;20240;-70
2021/12/04 03:16:47;;;;;;;6.00;3.77;;;2.90;99.90;;;;;;10365738;28;20229;-71
2021/12/04 03:21:48;;;;;;;5.57;3.53;;;2.90;99.90;;;;;;10379086;28;20248;-72
2021/12/04 03:26:50;;;;;;;5.60;3.40;;;2.90;99.90;;;;;;10360024;28;20221;-71
2021/12/04 03:42:41;;;;;;;7.60;4.17;;;2.90;99.90;;;;;;10342830;28;20650;-72
2021/12/04 03:47:46;;;;;;;5.60;3.30;;;2.90;99.90;;;;;;10359799;28;20228;-71
2021/12/04 03:52:46;;;;;;;4.53;3.40;;;2.90;99.90;;;;;;10360094;28;20705;-71
2021/12/04 03:57:50;;;;;;;4.13;3.20;;;2.90;99.90;;;;;;10360361;28;20233;-71
2021/12/04 04:02:51;;;;;;;4.73;2.77;;;3.00;99.90;;;;;;10360201;28;20234;-72
2021/12/04 04:07:52;;;;;;;3.80;3.30;;;3.10;99.90;;;;;;10357760;28;20300;-70
2021/12/04 04:12:52;;;;;;;3.87;3.17;;;3.10;99.90;;;;;;10369926;28;20308;-71
2021/12/04 04:17:53;;;;;;;3.50;3.00;;;3.20;99.90;;;;;;10360593;28;20232;-71
2021/12/04 04:22:54;;;;;;;5.23;3.47;;;3.30;99.90;;;;;;10374974;28;20238;-70
2021/12/04 04:27:54;;;;;;;4.07;3.53;;;3.30;99.90;;;;;;10361087;28;20380;-71
2021/12/04 04:32:55;;;;;;;4.57;3.60;;;3.40;99.90;;;;;;10363144;28;20276;-70
2021/12/04 04:38:12;;;;;;;3.93;3.63;;;3.40;99.90;;;;;;10356121;28;20224;-72
2021/12/04 05:14:58;;;;;;;5.83;4.17;;;3.70;99.90;;;;;;10360305;28;20213;-71
2021/12/04 05:19:58;;;;;;;6.50;4.43;;;3.70;99.90;;;;;;10358250;28;20225;-71
2021/12/04 05:24:59;;;;;;;7.30;4.60;;;3.70;99.90;;;;;;10360434;28;20578;-71
2021/12/04 05:30:00;;;;;;;5.53;4.20;;;3.80;99.90;;;;;;10358628;28;20217;-70
2021/12/04 05:35:00;;;;;;;6.00;4.73;;;3.70;99.90;;;;;;10356557;28;20221;-71
2021/12/04 05:40:01;;;;;;;5.83;4.57;;;3.70;99.90;;;;;;10358186;28;20866;-70
2021/12/04 05:45:04;;;;;;;7.10;4.97;;;3.80;99.90;;;;;;10354139;28;20301;-71
2021/12/04 05:55:19;;;;;;;10.47;7.63;;;3.90;99.90;;;;;;10359283;28;20236;-72
2021/12/04 06:00:24;;;;;;;14.43;9.20;;;3.80;99.90;;;;;;10353918;28;20205;-71
2021/12/04 06:05:25;;;;;;;7.17;5.10;;;3.90;99.90;;;;;;10341655;28;20271;-70
2021/12/04 06:10:26;;;;;;;7.17;5.53;;;4.00;99.90;;;;;;10356439;28;21349;-71
2021/12/04 06:15:26;;;;;;;6.40;4.90;;;4.00;99.90;;;;;;10362385;28;20664;-71
2021/12/04 06:25:53;;;;;;;6.53;5.53;;;4.00;99.90;;;;;;10358112;28;20257;-71
2021/12/04 06:30:55;;;;;;;6.00;5.33;;;4.00;99.90;;;;;;10351300;28;20232;-71
2021/12/04 06:35:58;;;;;;;6.87;5.53;;;4.00;99.90;;;;;;10358449;28;20232;-71
2021/12/04 06:40:59;;;;;;;7.90;6.33;;;4.00;99.90;;;;;;10373383;28;20252;-71
2021/12/04 06:46:02;;;;;;;7.93;6.10;;;4.00;99.90;;;;;;10358149;28;20287;-72
2021/12/04 06:51:10;;;;;;;6.80;5.83;;;4.00;99.90;;;;;;10355742;28;20221;-71
2021/12/04 06:56:12;;;;;;;7.67;5.30;;;4.00;99.90;;;;;;10356186;28;20221;-71
2021/12/04 07:01:13;;;;;;;6.10;5.40;;;4.00;99.90;;;;;;10358837;28;20316;-71
2021/12/04 07:06:13;;;;;;;7.47;5.60;;;3.90;99.90;;;;;;10350302;28;20332;-71
2021/12/04 07:11:14;;;;;;;6.97;5.10;;;3.90;99.90;;;;;;10357436;28;20640;-72
2021/12/04 07:16:18;;;;;;;8.17;5.73;;;4.00;99.90;;;;;;10350923;28;20224;-72
2021/12/04 07:21:19;;;;;;;6.77;5.70;;;3.90;99.90;;;;;;10359869;28;20228;-72
2021/12/04 07:26:20;;;;;;;8.47;6.30;;;3.80;99.90;;;;;;10364864;28;20301;-72
2021/12/04 07:31:20;;;;;;;9.13;6.70;;;3.80;99.90;;;;;;10363428;28;20225;-71
2021/12/04 07:36:22;;;;;;;9.10;6.60;;;3.70;99.90;;;;;;10359072;28;20634;-71
2021/12/04 07:41:23;;;;;;;9.47;7.03;;;3.70;99.90;;;;;;10364506;28;20234;-71
2021/12/04 07:46:24;;;;;;;8.23;6.93;;;3.70;99.90;;;;;;10353583;28;20815;-71
2021/12/04 07:51:24;;;;;;;8.83;7.20;;;3.70;99.90;;;;;;10365687;28;20271;-71
2021/12/04 07:56:25;;;;;;;8.40;7.07;;;3.70;99.90;;;;;;10356249;28;20221;-70
2021/12/04 08:01:26;;;;;;;10.80;7.67;;;3.80;99.90;;;;;;10351626;28;20814;-70
2021/12/04 08:06:27;;;;;;;9.50;7.57;;;3.80;99.90;;;;;;10353461;28;20217;-71
2021/12/04 08:11:28;;;;;;;10.07;8.07;;;3.80;99.90;;;;;;10377760;28;20244;-71
2021/12/04 08:16:32;;;;;;;7.97;6.97;;;3.90;99.90;;;;;;10350532;28;20221;-71
2021/12/04 08:21:34;;;;;;;7.73;6.77;;;4.00;99.90;;;;;;10354541;28;20233;-71
2021/12/04 08:26:38;;;;;;;8.80;6.77;;;4.00;99.90;;;;;;10352268;28;20648;-71
2021/12/04 08:31:39;;;;;;;7.47;6.53;;;4.20;99.90;;;;;;10358736;28;20226;-71
2021/12/04 08:36:40;;;;;;;7.10;6.40;;;4.30;99.90;;;;;;10347151;28;20228;-70
2021/12/04 08:41:41;;;;;;;6.43;5.70;;;4.30;99.90;;;;;;10346422;28;20233;-71
2021/12/04 08:46:42;;;;;;;5.97;5.33;;;4.40;99.90;;;;;;10352982;28;20213;-72
2021/12/04 08:51:43;;;;;;;6.67;5.33;;;4.50;99.90;;;;;;10350808;28;20226;-71
2021/12/04 08:56:47;;;;;;;6.60;5.90;;;4.50;99.90;;;;;;10349677;28;20225;-70
2021/12/04 09:01:49;;;;;;;6.47;5.60;;;4.50;99.90;;;;;;10366815;28;20265;-72
2021/12/04 09:06:52;;;;;;;7.17;5.30;;;4.60;99.90;;;;;;10356996;28;20300;-71
2021/12/04 09:11:56;;;;;;;5.67;5.07;;;4.70;99.90;;;;;;10352920;28;20227;-71
2021/12/04 09:16:59;;;;;;;4.60;4.07;;;4.80;99.90;;;;;;10354415;28;20232;-71
2021/12/04 09:22:00;;;;;;;5.60;5.10;;;4.80;99.90;;;;;;10347784;28;20289;-70
2021/12/04 09:27:21;;;;;;;5.93;4.90;;;4.90;99.90;;;;;;10359315;28;20722;-71
2021/12/04 09:32:45;;;;;;;6.67;5.20;;;4.90;99.90;;;;;;10351018;28;20566;-71
2021/12/04 10:36:34;;;;;;;6.90;5.27;;;5.70;99.90;;;;;;10351456;28;20312;-70
2021/12/04 10:41:39;;;;;;;6.07;5.47;;;5.80;99.90;;;;;;10344562;28;20237;-72
2021/12/04 10:46:52;;;;;;;7.17;5.43;;;5.90;99.90;;;;;;10341004;28;20619;-70
2021/12/04 10:52:01;;;;;;;6.30;5.40;;;5.80;99.90;;;;;;10350260;28;20748;-70
2021/12/04 11:02:37;;;;;;;5.90;4.83;;;5.80;99.90;;;;;;10353604;28;20711;-70
2021/12/04 11:18:59;;;;;;;6.37;5.43;;;5.90;99.90;;;;;;10383004;28;20596;-71
2021/12/04 11:45:48;;;;;;;7.47;6.30;;;6.10;99.90;;;;;;10354314;28;20352;-71
2021/12/04 11:50:52;;;;;;;7.53;5.90;;;6.10;99.90;;;;;;10351970;28;20248;-70
2021/12/04 11:55:53;;;;;;;6.27;5.30;;;6.20;99.90;;;;;;10353266;28;20221;-71
2021/12/04 12:00:58;;;;;;;6.83;5.40;;;6.20;99.90;;;;;;10350316;28;20795;-70
2021/12/04 12:06:00;;;;;;;8.80;5.77;;;6.20;99.90;;;;;;10355729;28;20677;-71
2021/12/04 12:11:08;;;;;;;6.20;5.40;;;6.30;99.90;;;;;;10350046;28;20312;-70
2021/12/04 12:16:39;;;;;;;5.83;5.23;;;6.40;99.90;;;;;;10357934;28;20824;-71
2021/12/04 12:21:54;;;;;;;6.27;5.13;;;6.50;99.90;;;;;;10342522;28;20392;-71
2021/12/04 12:32:51;;;;;;;6.03;5.23;;;6.50;99.90;;;;;;10347984;28;20217;-71
2021/12/04 12:37:53;;;;;;;5.57;5.07;;;6.60;99.90;;;;;;10354244;28;20318;-71
2021/12/04 12:42:54;;;;;;;6.47;5.40;;;6.70;99.90;;;;;;10362164;28;20233;-71
2021/12/04 12:48:04;;;;;;;7.33;5.00;;;6.80;99.90;;;;;;10357039;28;20559;-71
2021/12/04 12:53:11;;;;;;;6.97;5.13;;;6.80;99.90;;;;;;10356845;28;20864;-72
2021/12/04 12:58:18;;;;;;;6.67;4.50;;;6.90;99.90;;;;;;10348540;28;20218;-72
2021/12/04 13:14:22;;;;;;;8.70;5.27;;;6.80;99.90;;;;;;10345199;28;20214;-70
2021/12/04 13:19:24;;;;;;;7.80;5.00;;;6.80;99.90;;;;;;10345828;28;20276;-71
2021/12/04 13:24:30;;;;;;;7.67;4.97;;;6.80;99.90;;;;;;10351479;28;20221;-72
2021/12/04 13:29:30;;;;;;;5.33;4.83;;;6.70;99.90;;;;;;10349240;28;20671;-71
2021/12/04 13:34:33;;;;;;;7.00;5.50;;;6.70;99.90;;;;;;10349005;28;20257;-71
2021/12/04 13:39:37;;;;;;;7.83;6.33;;;6.60;99.90;;;;;;10351177;28;20246;-70
2021/12/04 13:44:38;;;;;;;7.00;6.30;;;6.60;99.90;;;;;;10344117;28;20226;-71
2021/12/04 13:50:06;;;;;;;5.97;5.37;;;6.60;99.90;;;;;;10348495;28;20685;-71
2021/12/04 13:55:10;;;;;;;6.43;5.30;;;6.60;99.90;;;;;;10350458;28;20267;-71
2021/12/04 14:00:15;;;;;;;7.60;5.47;;;6.60;99.90;;;;;;10359239;28;20217;-71
2021/12/04 14:05:21;;;;;;;7.77;6.40;;;6.50;99.90;;;;;;10342768;28;20213;-71
2021/12/04 14:10:30;;;;;;;6.43;5.17;;;6.40;99.90;;;;;;10352110;28;20203;-71
2021/12/04 14:15:32;;;;;;;5.37;4.87;;;6.30;99.90;;;;;;10349666;28;20229;-71
2021/12/04 14:20:36;;;;;;;5.10;4.60;;;6.00;99.90;;;;;;10345919;28;20224;-71
2021/12/04 14:25:43;;;;;;;5.63;4.90;;;5.90;99.90;;;;;;10348392;28;20245;-70
2021/12/04 14:30:45;;;;;;;6.53;5.17;;;5.90;99.90;;;;;;10352091;28;20246;-71
2021/12/04 14:35:50;;;;;;;5.60;5.10;;;5.90;99.90;;;;;;10351846;28;20308;-70
2021/12/04 14:40:53;;;;;;;9.63;7.37;;;5.90;99.90;;;;;;10362715;28;20233;-71
2021/12/04 14:45:56;;;;;;;6.20;5.40;;;5.80;99.90;;;;;;10345374;28;20900;-71
2021/12/04 14:51:05;;;;;;;5.40;4.90;;;5.80;99.90;;;;;;10339119;28;20267;-71
2021/12/04 14:56:09;;;;;;;5.87;4.30;;;5.80;99.90;;;;;;10344172;28;20704;-70
2021/12/04 15:01:15;;;;;;;6.27;4.93;;;5.80;99.90;;;;;;10350960;28;20221;-71
2021/12/04 15:06:18;;;;;;;8.50;5.10;;;5.80;99.90;;;;;;10341823;28;20225;-71
2021/12/04 15:11:25;;;;;;;8.53;5.83;;;5.80;99.90;;;;;;10345393;28;20804;-70
2021/12/04 15:16:37;;;;;;;9.07;6.43;;;5.70;99.90;;;;;;10364454;28;20270;-71
2021/12/04 15:21:45;;;;;;;9.07;7.67;;;5.70;99.90;;;;;;10360855;28;20229;-71
2021/12/04 15:26:48;;;;;;;9.40;7.43;;;5.60;99.90;;;;;;10347003;28;20256;-70
2021/12/04 15:31:50;;;;;;;10.97;8.57;;;5.50;99.90;;;;;;10365406;28;20360;-69
2021/12/04 15:36:50;;;;;;;9.53;7.37;;;5.50;99.90;;;;;;10351000;28;20336;-70
2021/12/04 15:57:37;;;;;;;7.90;6.27;;;5.30;99.90;;;;;;10351856;28;20673;-71
2021/12/04 16:02:44;;;;;;;7.60;6.00;;;5.30;99.90;;;;;;10347186;28;20320;-70
2021/12/04 16:07:58;;;;;;;9.20;7.63;;;5.30;99.90;;;;;;10356668;28;20213;-71
2021/12/04 16:12:59;;;;;;;8.57;6.57;;;5.30;99.90;;;;;;10355452;28;20222;-71
2021/12/04 16:18:01;;;;;;;9.20;6.40;;;5.30;99.90;;;;;;10352933;28;20218;-70
2021/12/04 16:23:03;;;;;;;7.80;6.30;;;5.30;99.90;;;;;;10353397;28;20971;-72
2021/12/04 16:33:36;;;;;;;8.53;6.77;;;5.30;99.90;;;;;;10349702;28;20229;-70
2021/12/04 16:38:38;;;;;;;8.27;5.73;;;5.30;99.90;;;;;;10352541;28;20280;-71
2021/12/04 16:43:41;;;;;;;9.50;7.67;;;5.20;99.90;;;;;;10355689;28;20719;-71
2021/12/04 16:48:52;;;;;;;11.80;9.10;;;5.10;99.90;;;;;;10356265;28;20237;-70
2021/12/04 16:59:22;;;;;;;13.43;9.03;;;4.90;99.90;;;;;;10346427;28;20217;-71
2021/12/04 17:04:25;;;;;;;11.63;9.63;;;5.00;99.90;;;;;;10353363;28;20275;-70
2021/12/04 17:09:27;;;;;;;12.27;9.07;;;4.90;99.90;;;;;;10348948;28;20221;-71
2021/12/04 17:14:31;;;;;;;13.50;9.57;;;4.90;99.90;;;;;;10352870;28;20635;-70
2021/12/04 17:19:32;;;;;;;13.33;9.47;;;5.00;99.90;;;;;;10348585;28;20221;-71
2021/12/04 17:24:33;;;;;;;12.30;9.73;;;4.90;99.90;;;;;;10351844;28;20314;-71
2021/12/04 17:29:34;;;;;;;12.03;9.43;;;5.00;99.90;;;;;;10352565;28;20405;-70
2021/12/04 17:34:35;;;;;;;11.93;8.73;;;4.90;99.90;;;;;;10353124;28;20232;-71
2021/12/04 17:39:35;;;;;;;9.93;8.33;;;4.90;99.90;;;;;;10351997;28;20217;-72
2021/12/04 17:44:36;;;;;;;12.40;8.43;;;4.90;99.90;;;;;;10340683;28;20242;-71
2021/12/04 17:49:37;;;;;;;10.30;7.30;;;5.00;99.90;;;;;;10343901;28;20711;-70
2021/12/04 17:54:37;;;;;;;8.17;6.63;;;5.00;99.90;;;;;;10349990;28;20248;-71
2021/12/04 17:59:38;;;;;;;7.00;5.80;;;5.10;99.90;;;;;;10353661;28;20681;-71
2021/12/04 18:04:45;;;;;;;7.17;5.93;;;5.10;99.90;;;;;;10347942;28;20218;-71
2021/12/04 18:09:47;;;;;;;5.30;4.67;;;5.20;99.90;;;;;;10360443;28;20221;-71
2021/12/04 18:14:49;;;;;;;4.77;4.13;;;5.20;99.90;;;;;;10349943;28;20860;-70
2021/12/04 18:19:51;;;;;;;6.00;4.83;;;5.30;99.90;;;;;;10347872;28;20236;-71
2021/12/04 18:24:51;;;;;;;7.07;4.90;;;5.40;99.90;;;;;;10354721;28;20221;-70
2021/12/04 18:29:52;;;;;;;5.30;4.43;;;5.40;99.90;;;;;;10345871;28;20745;-70
2021/12/04 18:34:52;;;;;;;6.27;4.43;;;5.40;99.90;;;;;;10359074;28;20216;-71
2021/12/04 18:39:53;;;;;;;5.67;4.50;;;5.40;99.90;;;;;;10358933;28;20224;-71
2021/12/04 18:44:53;;;;;;;6.47;4.50;;;5.40;99.90;;;;;;10345977;28;20339;-71
2021/12/04 18:49:54;;;;;;;5.13;4.10;;;5.40;99.90;;;;;;10337061;28;20258;-71
2021/12/04 18:54:55;;;;;;;4.50;4.00;;;5.40;99.90;;;;;;10322807;28;20236;-71
2021/12/04 18:59:55;;;;;;;3.77;3.40;;;5.50;99.90;;;;;;10342633;28;20260;-71
2021/12/04 19:04:56;;;;;;;3.30;3.00;;;5.50;99.90;;;;;;10345851;28;20234;-71
2021/12/04 19:09:56;;;;;;;3.63;2.97;;;5.60;99.90;;;;;;10348468;28;20275;-70
2021/12/04 19:15:01;;;;;;;2.63;2.20;;;5.60;99.90;;;;;;10360754;28;20221;-71
2021/12/04 19:20:06;;;;;;;2.80;2.00;;;5.70;99.90;;;;;;10356860;28;20240;-71
2021/12/04 19:25:13;;;;;;;1.73;1.63;;;5.70;99.90;;;;;;10350789;28;20770;-70
2021/12/04 19:30:19;;;;;;;2.07;1.63;;;5.70;99.90;;;;;;10357684;28;20217;-72
2021/12/04 19:51:10;;;;;;;3.03;1.57;;;5.80;99.90;;;;;;10341219;28;20601;-71
2021/12/04 19:56:31;;;;;;;1.50;1.40;;;5.80;99.90;;;;;;10356227;28;20214;-71
2021/12/04 20:01:40;;;;;;;1.30;1.20;;;5.90;99.90;;;;;;10357977;28;20229;-72
2021/12/04 20:06:50;;;;;;;1.60;1.50;;;5.90;99.90;;;;;;10352606;28;20217;-70
2021/12/04 20:17:10;;;;;;;3.53;3.03;;;6.00;99.90;;;;;;10355463;28;20217;-70
2021/12/04 20:22:12;;;;;;;2.27;1.37;;;6.00;99.90;;;;;;10355074;28;20221;-70
2021/12/04 20:27:15;;;;;;;1.70;1.53;;;6.00;99.90;;;;;;10355964;28;20230;-71
2021/12/04 21:51:45;;;;;;;6.93;3.10;;;5.50;99.90;;;;;;10348338;28;20308;-70
2021/12/04 22:55:28;;;;;;;8.63;2.03;;;4.60;99.90;;;;;;10359820;28;20585;-72
2021/12/04 23:00:41;;;;;;;5.80;2.10;;;4.50;99.90;;;;;;10376569;28;20236;-71
2021/12/04 23:11:23;;;;;;;5.43;2.10;;;4.40;99.90;;;;;;10352523;28;20218;-71
2021/12/04 23:38:11;;;;;;;6.40;2.40;;;4.50;99.90;;;;;;10356582;28;20210;-71
